Aérodrome :
LOGIN :

S'inscrire | Disclaimer

   EN    FR    IT 

 










Légende :    VFR   VFR Marginal   IFR   IFR Intensif   IFR Très Intensif
Visi : 
Plafond : 
>= 8 km
>= 3000ft
5 à 8 km
1000 à 3000 ft
1500m à 5 km
500 à 1000 ft
800 à 1500m
200 à 500 ft
< 800m
< 200 ft
Symboles :   Orages  Brouillard  Fortes neiges  Fortes précipitations  Vent > 20 kt
SIGMETs :   Divers  Orages  Givrage  Turbulence  Onde Orograph.  Cendres Volcan.






- Altitude de l'aérodrome : 194 ft


EBCV - Chièvres

DERNIER METAR :
  • 181325Z AUTO 30007KT 9999 FEW042/// SCT050/// BKN070/// 10/03 Q1021 BLU

METARs EXPIRÉS :
  • 181255Z AUTO 29006KT 9999 FEW039/// SCT055/// BKN100/// 10/02 Q1022 BLU
  • 181225Z AUTO 28007KT 9999 SCT036/// BKN050/// BKN095/// 10/02 Q1021 BLU
  • 181155Z AUTO 35004KT 9999 FEW036/// BKN085/// BKN150/// 10/02 Q1021 BLU
  • 181125Z AUTO 35003KT 9999 FEW037/// BKN050/// BKN065/// 10/03 Q1022 BLU
  • 181055Z AUTO 36004KT 9999 FEW038/// SCT048/// BKN080/// 10/02 Q1021 BLU
  • 181025Z AUTO 01005KT 9999 FEW034/// SCT039/// BKN080/// 09/02 Q1021 BLU
  • 180955Z AUTO 04006KT 9999 FEW030/// SCT041/// BKN100/// 10/02 Q1021 BLU
  • 180925Z AUTO 04005KT 9999 FEW025/// SCT110/// BKN150/// 09/03 Q1021 BLU
  • 180855Z AUTO 05006KT 9999 FEW015/// SCT150/// BKN220/// 08/03 Q1021 BLU

TAF TAF EBCV
Valide du 18 à 13h jusqu'au 18 à 22h UTC


181141Z 1813/1822 34004KT 9999 FEW030 SCT040
BECMG 1813/1815 28006KT FEW035 SCT050 BKN200
BECMG 1819/1821 23007KT BY EBWM



MET'MAP, la Météo Aéronautique d'un coup d'oeil ! - Copyright ORBIFLY Décembre 2007 - Disclaimer

ORBIFLY MET'MAP TEAM :

Programmation & Développement : Alexandra Zaïnal
Sur une idée originale de : Baudouin d'Aumeries
Soutien technique & logistique : Manuel Goepfert
Assistance : Marc-Olivier Méhu




SOURCES & CREDITS :

   NOAA